Coeur d Alene, Idaho
Current Conditions -  °F | °C
As of 3:15 PM on Friday 28 Nov 2014 (Local Time) from KCOE Reporting Station
Overcast Overcast  
Wind Chill: 50°   Ceiling: 4800
Heat Index: 50°   Visibility: 10mi
Dew Point: 34°   Wind: 22mph
Humidity: 54%   Direction: 210°SSW
Pressure: 29.32"   Gusts: 31mph
Location:  47.7269°N, 116.787°W
Report Text: KCOE 282315Z AUTO 21019G27KT 10SM SCT040 OVC048 10/01 A2932 RMK AO1
Loading
Personal Weather Stations






























Interactive Weather Map New forecast layout! Learn more

10-Day Weather Forecast

Advertisements
Track Severe Weather on mobile